Terminal Aerodrome Forecast
Issued by NWS Sioux Falls, SD

Home | Current Version | Previous Version | Text Only | Print | Product List | Glossary Off
Versions: 1 2 3 4 5 6 7 8 9 10 11 12 13

000
FTUS43 KFSD 191100
TAFSUX
TAF
KSUX 191131Z 1912/2012 17013G19KT P6SM SCT250
     FM191500 19016G23KT P6SM SCT200
     FM192000 21012KT P6SM BKN150
     FM200100 VRB05KT P6SM SCT070 BKN120
     FM200400 14005KT P6SM OVC060
     FM200700 15006KT P6SM -SHRA OVC050=

USA.gov is the U.S. government's official web portal to all federal, state and local government web resources and services.